Time;durP1;ratioP1;P1;durP2;ratioP2;P2;SDS_P1;SDS_P2;PMS_P1;PMS_P2;Temp;Humidity;BMP_temperature;BMP_pressure;BME280_temperature;BME280_humidity;BME280_pressure;Samples;Min_cycle;Max_cycle;Signal;HPM_P1;HPM_P2
2022/08/30 00:01:25;;;;;;;21.07;19.87;;;;;;;;;;5035918;28;20496;-90
2022/08/30 00:03:54;;;;;;;20.40;19.40;;;;;;;;;;5018476;28;20502;-90
2022/08/30 00:06:23;;;;;;;20.57;19.47;;;;;;;;;;5036420;28;20472;-90
2022/08/30 00:08:50;;;;;;;20.67;19.57;;;;;;;;;;5035386;28;20460;-90
2022/08/30 00:11:20;;;;;;;20.50;19.40;;;;;;;;;;5035939;28;20412;-90
2022/08/30 00:13:48;;;;;;;20.87;19.77;;;;;;;;;;5035783;28;20418;-90
2022/08/30 00:16:16;;;;;;;19.87;18.87;;;;;;;;;;5035717;28;20542;-89
2022/08/30 00:18:43;;;;;;;20.57;19.47;;;;;;;;;;5017062;28;20481;-90
2022/08/30 00:21:13;;;;;;;20.97;19.50;;;;;;;;;;5035576;28;20420;-90
2022/08/30 00:23:40;;;;;;;20.30;19.00;;;;;;;;;;5035583;28;20422;-89
2022/08/30 00:26:08;;;;;;;20.60;19.40;;;;;;;;;;5035697;28;20472;-90
2022/08/30 00:28:36;;;;;;;20.40;19.30;;;;;;;;;;5035798;28;20496;-90
2022/08/30 00:31:04;;;;;;;20.40;19.30;;;;;;;;;;5035464;28;20465;-90
2022/08/30 00:33:32;;;;;;;20.93;19.53;;;;;;;;;;5035588;28;20441;-90
2022/08/30 00:35:59;;;;;;;19.90;18.90;;;;;;;;;;5035564;28;20459;-90
2022/08/30 00:38:28;;;;;;;20.87;19.77;;;;;;;;;;5018053;28;20424;-90
2022/08/30 00:40:56;;;;;;;20.37;19.17;;;;;;;;;;5035131;28;20790;-88
2022/08/30 00:43:26;;;;;;;20.67;19.57;;;;;;;;;;5035044;28;20440;-90
2022/08/30 00:45:53;;;;;;;20.17;19.07;;;;;;;;;;5035115;28;20422;-90
2022/08/30 00:48:21;;;;;;;20.33;19.20;;;;;;;;;;5035413;28;20435;-90
2022/08/30 00:50:49;;;;;;;20.00;18.80;;;;;;;;;;5034928;28;20454;-91
2022/08/30 00:53:20;;;;;;;19.33;18.33;;;;;;;;;;5035300;28;20419;-90
2022/08/30 00:55:49;;;;;;;20.00;18.90;;;;;;;;;;5035041;28;20459;-90
2022/08/30 00:58:20;;;;;;;20.10;19.00;;;;;;;;;;5034770;28;21007;-90
2022/08/30 01:00:48;;;;;;;19.97;18.63;;;;;;;;;;5017447;28;20476;-90
2022/08/30 01:03:16;;;;;;;20.57;19.37;;;;;;;;;;5035184;28;20420;-90
2022/08/30 01:05:43;;;;;;;20.30;19.20;;;;;;;;;;5034962;28;20477;-89
2022/08/30 01:08:11;;;;;;;20.50;19.30;;;;;;;;;;5034483;28;20562;-89
2022/08/30 01:10:39;;;;;;;20.80;19.60;;;;;;;;;;5017068;28;20811;-89
2022/08/30 01:13:08;;;;;;;19.80;18.80;;;;;;;;;;5017099;28;20478;-90
2022/08/30 01:15:36;;;;;;;20.23;19.17;;;;;;;;;;5034667;28;20481;-89
2022/08/30 01:18:03;;;;;;;20.30;19.27;;;;;;;;;;5034854;28;20424;-90
2022/08/30 01:20:34;;;;;;;19.53;18.53;;;;;;;;;;5034880;28;20830;-90
2022/08/30 01:23:17;;;;;;;19.60;18.60;;;;;;;;;;5034123;28;20492;-91
2022/08/30 01:25:46;;;;;;;20.07;18.97;;;;;;;;;;5030442;28;20462;-89
2022/08/30 01:28:15;;;;;;;19.90;18.80;;;;;;;;;;5034673;28;20476;-90
2022/08/30 01:30:42;;;;;;;19.70;18.70;;;;;;;;;;5034267;28;20411;-90
2022/08/30 01:33:11;;;;;;;19.90;18.70;;;;;;;;;;5034408;28;20839;-90
2022/08/30 01:35:42;;;;;;;19.40;18.40;;;;;;;;;;5034378;28;20842;-90
2022/08/30 01:38:10;;;;;;;20.23;19.13;;;;;;;;;;5016749;28;20453;-90
2022/08/30 01:40:37;;;;;;;19.60;18.43;;;;;;;;;;5016313;28;20449;-90
2022/08/30 01:43:06;;;;;;;19.13;18.10;;;;;;;;;;5034076;28;20449;-90
2022/08/30 01:45:34;;;;;;;19.30;18.33;;;;;;;;;;5033917;28;20516;-90
2022/08/30 01:48:01;;;;;;;20.00;18.90;;;;;;;;;;5034280;28;20436;-90
2022/08/30 01:50:29;;;;;;;19.53;18.17;;;;;;;;;;5034313;28;20420;-89
2022/08/30 01:52:56;;;;;;;19.53;18.53;;;;;;;;;;5034375;28;20499;-89
2022/08/30 01:55:24;;;;;;;19.10;18.10;;;;;;;;;;5034143;28;20456;-90
2022/08/30 01:57:51;;;;;;;19.53;18.60;;;;;;;;;;5016522;28;20507;-90
2022/08/30 02:00:21;;;;;;;19.23;18.23;;;;;;;;;;5034028;28;20416;-90
2022/08/30 02:02:48;;;;;;;19.57;18.30;;;;;;;;;;5033784;28;20451;-89
2022/08/30 02:05:16;;;;;;;19.50;18.50;;;;;;;;;;5033800;28;20477;-86
2022/08/30 02:07:43;;;;;;;19.63;18.63;;;;;;;;;;5033732;28;20979;-90
2022/08/30 02:10:11;;;;;;;19.60;18.60;;;;;;;;;;5016411;28;20412;-91
2022/08/30 02:12:38;;;;;;;20.20;19.13;;;;;;;;;;5033885;28;20405;-90
2022/08/30 02:15:06;;;;;;;20.47;19.43;;;;;;;;;;5033717;28;20491;-90
2022/08/30 02:17:35;;;;;;;19.60;18.50;;;;;;;;;;5016454;28;20482;-90
2022/08/30 02:20:03;;;;;;;20.10;19.00;;;;;;;;;;5034122;28;20919;-90
2022/08/30 02:22:30;;;;;;;20.23;19.13;;;;;;;;;;5016567;28;20451;-90
2022/08/30 02:24:57;;;;;;;19.27;18.27;;;;;;;;;;5033925;28;20454;-91
2022/08/30 02:27:25;;;;;;;19.80;18.80;;;;;;;;;;5033645;28;20464;-90
2022/08/30 02:29:53;;;;;;;19.50;18.53;;;;;;;;;;5033946;28;20490;-90
2022/08/30 02:32:20;;;;;;;19.83;18.83;;;;;;;;;;5033799;28;20426;-90
2022/08/30 02:34:49;;;;;;;19.57;18.27;;;;;;;;;;5033744;28;20446;-90
2022/08/30 02:37:16;;;;;;;19.93;18.93;;;;;;;;;;5033922;28;20879;-90
2022/08/30 02:39:44;;;;;;;19.53;18.53;;;;;;;;;;5033524;28;20920;-91
2022/08/30 02:42:11;;;;;;;20.07;19.07;;;;;;;;;;5036358;28;20493;-89
2022/08/30 02:44:39;;;;;;;19.70;18.73;;;;;;;;;;5037666;28;20428;-90
2022/08/30 02:47:06;;;;;;;19.60;18.60;;;;;;;;;;5037823;28;20802;-90
2022/08/30 02:49:34;;;;;;;19.23;18.33;;;;;;;;;;5037730;28;20456;-91
2022/08/30 02:52:03;;;;;;;19.03;18.03;;;;;;;;;;5037410;28;20433;-91
2022/08/30 02:54:32;;;;;;;19.30;18.20;;;;;;;;;;5037357;28;20935;-90
2022/08/30 02:57:01;;;;;;;19.50;18.60;;;;;;;;;;5019632;28;20482;-90
2022/08/30 02:59:29;;;;;;;19.40;18.30;;;;;;;;;;5037079;28;20452;-90
2022/08/30 03:01:56;;;;;;;19.20;18.20;;;;;;;;;;5037432;28;20454;-91
2022/08/30 03:04:23;;;;;;;19.27;18.27;;;;;;;;;;5037510;28;20445;-90
2022/08/30 03:06:51;;;;;;;19.00;18.00;;;;;;;;;;5037055;28;20449;-91
2022/08/30 03:09:21;;;;;;;19.50;18.40;;;;;;;;;;5037045;28;20444;-90
2022/08/30 03:11:48;;;;;;;19.30;18.40;;;;;;;;;;5037281;28;20460;-91
2022/08/30 03:14:15;;;;;;;21.10;19.80;;;;;;;;;;5037051;28;20422;-91
2022/08/30 03:16:43;;;;;;;19.93;18.93;;;;;;;;;;5036722;28;20492;-90
2022/08/30 03:19:10;;;;;;;20.00;18.90;;;;;;;;;;5036793;28;20441;-91
2022/08/30 03:21:38;;;;;;;19.03;18.13;;;;;;;;;;5037039;28;20445;-90
2022/08/30 03:24:05;;;;;;;20.63;19.20;;;;;;;;;;5019424;28;20417;-89
2022/08/30 03:26:35;;;;;;;20.20;19.10;;;;;;;;;;5019514;28;20445;-90
2022/08/30 03:29:02;;;;;;;20.77;19.67;;;;;;;;;;5036867;28;20443;-90
2022/08/30 03:31:29;;;;;;;20.20;19.10;;;;;;;;;;5036903;28;20445;-90
2022/08/30 03:33:57;;;;;;;20.20;19.20;;;;;;;;;;5036823;28;20436;-90
2022/08/30 03:36:24;;;;;;;19.80;18.70;;;;;;;;;;5036427;28;20467;-91
2022/08/30 03:38:52;;;;;;;20.07;18.90;;;;;;;;;;5036813;28;20538;-90
2022/08/30 03:41:19;;;;;;;20.47;19.30;;;;;;;;;;5036786;28;20792;-90
2022/08/30 03:43:48;;;;;;;20.20;19.20;;;;;;;;;;5036803;28;20441;-90
2022/08/30 03:46:16;;;;;;;19.60;18.60;;;;;;;;;;5036378;28;20432;-91
2022/08/30 03:48:43;;;;;;;19.30;18.30;;;;;;;;;;5036401;28;20443;-89
2022/08/30 03:51:11;;;;;;;20.57;19.47;;;;;;;;;;5036294;28;20409;-91
2022/08/30 03:53:38;;;;;;;20.23;19.23;;;;;;;;;;5036479;28;20415;-90
2022/08/30 03:56:06;;;;;;;19.50;18.50;;;;;;;;;;5036331;28;20459;-90
2022/08/30 03:58:34;;;;;;;19.90;18.80;;;;;;;;;;5018586;28;20475;-90
2022/08/30 04:01:03;;;;;;;20.00;18.90;;;;;;;;;;5036533;28;20434;-89
2022/08/30 04:03:30;;;;;;;20.07;18.80;;;;;;;;;;5036283;28;20416;-90
2022/08/30 04:05:58;;;;;;;20.47;19.37;;;;;;;;;;5036137;28;20420;-90
2022/08/30 04:08:25;;;;;;;20.23;19.23;;;;;;;;;;5035813;28;20487;-89
2022/08/30 04:10:53;;;;;;;20.67;19.43;;;;;;;;;;5035658;28;20417;-90
2022/08/30 04:13:21;;;;;;;20.20;19.10;;;;;;;;;;5036205;28;20532;-91
2022/08/30 04:15:49;;;;;;;19.57;18.57;;;;;;;;;;5035819;28;20489;-90
2022/08/30 04:18:18;;;;;;;20.70;19.50;;;;;;;;;;5035872;28;20887;-90
2022/08/30 04:20:46;;;;;;;20.53;19.43;;;;;;;;;;5035537;28;21003;-90
2022/08/30 04:23:13;;;;;;;20.90;19.70;;;;;;;;;;5035953;28;20510;-90
2022/08/30 04:25:41;;;;;;;20.20;19.07;;;;;;;;;;5035477;28;20449;-91
2022/08/30 04:28:09;;;;;;;21.50;20.30;;;;;;;;;;5035446;28;20443;-90
2022/08/30 04:30:39;;;;;;;21.23;19.93;;;;;;;;;;5035638;28;20435;-90
2022/08/30 04:33:07;;;;;;;21.07;19.80;;;;;;;;;;5037899;28;20454;-90
2022/08/30 04:35:36;;;;;;;22.73;21.17;;;;;;;;;;5035581;28;20415;-89
2022/08/30 04:38:03;;;;;;;20.87;19.77;;;;;;;;;;5035552;28;20427;-90
2022/08/30 04:40:31;;;;;;;22.13;20.93;;;;;;;;;;5035460;28;20450;-90
2022/08/30 04:43:01;;;;;;;20.53;19.00;;;;;;;;;;5017678;28;20495;-90
2022/08/30 04:45:29;;;;;;;21.17;20.00;;;;;;;;;;5035302;28;20486;-90
2022/08/30 04:47:56;;;;;;;19.97;18.97;;;;;;;;;;5035211;28;20412;-89
2022/08/30 04:50:23;;;;;;;21.50;20.40;;;;;;;;;;5034944;28;20423;-88
2022/08/30 04:52:52;;;;;;;21.20;20.00;;;;;;;;;;5035257;28;20417;-88
2022/08/30 04:55:20;;;;;;;20.47;19.47;;;;;;;;;;5034447;28;20428;-84
2022/08/30 04:57:47;;;;;;;20.77;19.67;;;;;;;;;;5034122;28;20480;-84
2022/08/30 05:00:15;;;;;;;20.87;19.67;;;;;;;;;;5016044;28;20460;-83
2022/08/30 05:02:43;;;;;;;21.70;20.60;;;;;;;;;;5035100;28;20496;-89
2022/08/30 05:07:57;;;;;;;20.53;19.43;;;;;;;;;;5036888;28;20580;-94
2022/08/30 05:10:26;;;;;;;21.10;19.90;;;;;;;;;;5034949;28;20442;-88
2022/08/30 05:12:53;;;;;;;21.27;20.07;;;;;;;;;;5034787;28;20490;-88
2022/08/30 05:15:21;;;;;;;20.60;19.60;;;;;;;;;;5035104;28;20420;-89
2022/08/30 05:17:49;;;;;;;21.00;19.90;;;;;;;;;;5034650;28;20563;-92
2022/08/30 05:20:16;;;;;;;20.77;19.70;;;;;;;;;;5035459;28;20441;-91
2022/08/30 05:22:48;;;;;;;21.03;19.90;;;;;;;;;;5037232;28;20937;-94
2022/08/30 05:25:20;;;;;;;20.50;19.20;;;;;;;;;;5036068;28;20474;-82
2022/08/30 05:27:48;;;;;;;22.07;20.87;;;;;;;;;;5033471;28;20500;-82
2022/08/30 05:30:16;;;;;;;22.50;21.30;;;;;;;;;;5033176;28;20483;-83
2022/08/30 05:32:44;;;;;;;22.20;21.00;;;;;;;;;;5033191;28;20434;-83
2022/08/30 05:35:12;;;;;;;24.00;22.60;;;;;;;;;;5033570;28;20441;-82
2022/08/30 05:37:40;;;;;;;24.17;22.87;;;;;;;;;;5031856;28;21158;-82
2022/08/30 05:40:08;;;;;;;24.93;23.43;;;;;;;;;;5033357;28;20439;-92
2022/08/30 05:42:40;;;;;;;23.50;22.23;;;;;;;;;;5033581;28;20434;-81
2022/08/30 05:45:08;;;;;;;23.00;21.77;;;;;;;;;;5033827;28;20443;-87
2022/08/30 05:47:35;;;;;;;24.30;22.90;;;;;;;;;;5033714;28;20417;-87
2022/08/30 05:50:03;;;;;;;23.00;21.80;;;;;;;;;;5034621;28;20420;-90
2022/08/30 05:52:30;;;;;;;24.90;23.40;;;;;;;;;;5034198;28;20418;-89
2022/08/30 05:54:59;;;;;;;25.33;23.90;;;;;;;;;;5034296;28;20445;-89
2022/08/30 05:57:26;;;;;;;25.03;23.63;;;;;;;;;;5050543;28;20459;-91
2022/08/30 05:59:55;;;;;;;26.60;25.00;;;;;;;;;;5045060;28;20456;-93
2022/08/30 06:02:22;;;;;;;28.53;26.73;;;;;;;;;;5034357;28;20405;-86
2022/08/30 06:04:50;;;;;;;26.20;24.60;;;;;;;;;;5033598;28;20415;-86
2022/08/30 06:07:17;;;;;;;27.60;25.80;;;;;;;;;;5034062;28;20849;-87
2022/08/30 06:09:45;;;;;;;28.07;26.07;;;;;;;;;;5033669;28;20532;-86
2022/08/30 06:12:13;;;;;;;29.97;27.70;;;;;;;;;;5033595;28;20910;-87
2022/08/30 06:14:40;;;;;;;28.10;26.40;;;;;;;;;;5034068;28;20412;-84
2022/08/30 06:17:09;;;;;;;30.37;28.47;;;;;;;;;;5036545;28;20456;-87
2022/08/30 06:19:37;;;;;;;31.07;28.93;;;;;;;;;;5037555;28;20431;-88
2022/08/30 06:22:05;;;;;;;31.87;29.67;;;;;;;;;;5037990;28;20420;-87
2022/08/30 06:24:32;;;;;;;32.10;29.33;;;;;;;;;;5032357;28;20435;-87
2022/08/30 06:27:00;;;;;;;31.20;29.00;;;;;;;;;;5038026;28;20436;-88
2022/08/30 06:29:27;;;;;;;31.70;29.40;;;;;;;;;;5036097;28;20427;-86
2022/08/30 06:31:55;;;;;;;31.37;29.00;;;;;;;;;;5037906;28;20411;-88
2022/08/30 06:34:24;;;;;;;32.53;29.90;;;;;;;;;;5037560;28;20953;-87
2022/08/30 06:36:51;;;;;;;34.07;31.30;;;;;;;;;;5037322;28;20487;-87
2022/08/30 06:39:18;;;;;;;33.30;30.67;;;;;;;;;;5037653;28;20420;-88
2022/08/30 06:41:46;;;;;;;32.50;29.90;;;;;;;;;;5037559;28;20447;-89
2022/08/30 06:44:13;;;;;;;34.47;31.70;;;;;;;;;;5037785;28;20425;-89
2022/08/30 06:46:41;;;;;;;34.77;32.20;;;;;;;;;;5037344;28;20941;-89
2022/08/30 06:49:08;;;;;;;35.23;32.57;;;;;;;;;;5037299;28;20445;-88
2022/08/30 06:51:38;;;;;;;33.63;31.23;;;;;;;;;;5069216;28;20439;-89
2022/08/30 06:54:06;;;;;;;36.53;33.53;;;;;;;;;;5037476;28;20502;-89
2022/08/30 06:56:34;;;;;;;33.40;30.50;;;;;;;;;;5037011;28;20873;-89
2022/08/30 06:59:01;;;;;;;35.53;32.33;;;;;;;;;;5037160;28;20432;-88
2022/08/30 07:01:29;;;;;;;35.17;32.27;;;;;;;;;;5037062;28;20464;-89
2022/08/30 07:03:57;;;;;;;34.53;31.77;;;;;;;;;;5037241;28;20539;-90
2022/08/30 07:06:26;;;;;;;37.17;34.00;;;;;;;;;;5035566;28;20451;-89
2022/08/30 07:08:55;;;;;;;33.77;31.07;;;;;;;;;;5037275;28;20456;-91
2022/08/30 07:11:26;;;;;;;36.70;33.70;;;;;;;;;;5036917;28;20415;-79
2022/08/30 07:13:53;;;;;;;39.03;35.50;;;;;;;;;;5036487;28;20453;-89
2022/08/30 07:16:21;;;;;;;33.63;30.83;;;;;;;;;;5037449;28;20429;-82
2022/08/30 07:18:50;;;;;;;36.50;33.40;;;;;;;;;;5036064;28;20419;-84
2022/08/30 07:21:20;;;;;;;38.20;35.00;;;;;;;;;;5036311;28;20444;-84
2022/08/30 07:23:49;;;;;;;35.23;32.20;;;;;;;;;;5037032;28;20450;-86
2022/08/30 07:26:19;;;;;;;36.20;33.17;;;;;;;;;;5036550;28;20942;-87
2022/08/30 07:28:47;;;;;;;37.57;34.43;;;;;;;;;;5036423;28;20800;-89
2022/08/30 07:31:15;;;;;;;37.10;34.23;;;;;;;;;;5036897;28;20793;-87
2022/08/30 07:33:43;;;;;;;37.63;34.57;;;;;;;;;;5036381;28;20450;-88
2022/08/30 07:36:11;;;;;;;38.00;34.67;;;;;;;;;;5036714;28;20743;-88
2022/08/30 07:38:38;;;;;;;38.37;35.30;;;;;;;;;;5036548;28;20467;-88
2022/08/30 07:41:06;;;;;;;36.60;33.70;;;;;;;;;;5036694;28;20458;-89
2022/08/30 07:43:35;;;;;;;35.87;33.00;;;;;;;;;;5036974;28;20454;-86
2022/08/30 07:46:03;;;;;;;35.57;32.63;;;;;;;;;;5036596;28;20409;-78
2022/08/30 07:48:31;;;;;;;35.60;32.70;;;;;;;;;;5036145;28;20957;-90
2022/08/30 07:50:58;;;;;;;34.77;32.00;;;;;;;;;;5036093;28;20467;-87
2022/08/30 07:53:26;;;;;;;33.70;31.30;;;;;;;;;;5068093;28;20436;-81
2022/08/30 07:55:54;;;;;;;32.93;30.43;;;;;;;;;;5036370;28;20442;-87
2022/08/30 07:58:21;;;;;;;35.27;32.47;;;;;;;;;;5035510;28;20487;-84
2022/08/30 08:00:50;;;;;;;34.07;31.43;;;;;;;;;;5035833;28;20772;-85
2022/08/30 08:03:18;;;;;;;32.77;30.33;;;;;;;;;;5035415;28;20426;-84
2022/08/30 08:05:46;;;;;;;33.27;30.70;;;;;;;;;;5035031;28;20969;-84
2022/08/30 08:08:13;;;;;;;33.13;30.67;;;;;;;;;;5035126;28;20849;-85
2022/08/30 08:10:41;;;;;;;29.27;27.13;;;;;;;;;;5035212;28;20796;-83
2022/08/30 08:13:09;;;;;;;29.40;27.40;;;;;;;;;;5034674;28;20519;-83
2022/08/30 08:15:36;;;;;;;31.23;28.80;;;;;;;;;;5034553;28;20491;-82
2022/08/30 08:18:06;;;;;;;28.83;26.83;;;;;;;;;;5034514;28;20459;-83
2022/08/30 08:20:34;;;;;;;27.10;25.30;;;;;;;;;;5034715;28;20443;-83
2022/08/30 08:23:02;;;;;;;27.60;25.60;;;;;;;;;;5033287;28;20484;-83
2022/08/30 08:25:30;;;;;;;27.43;25.43;;;;;;;;;;5033144;28;20533;-83
2022/08/30 08:27:57;;;;;;;29.47;27.10;;;;;;;;;;5034660;28;20450;-83
2022/08/30 08:30:24;;;;;;;30.00;27.80;;;;;;;;;;5034405;28;20437;-83
2022/08/30 08:32:52;;;;;;;29.03;26.93;;;;;;;;;;5034235;28;20418;-84
2022/08/30 08:35:21;;;;;;;29.80;27.77;;;;;;;;;;5034335;28;20407;-83
2022/08/30 08:37:48;;;;;;;28.77;26.77;;;;;;;;;;5034131;28;20540;-82
2022/08/30 08:40:17;;;;;;;30.40;28.13;;;;;;;;;;5033099;28;20458;-83
2022/08/30 08:43:00;;;;;;;31.40;29.10;;;;;;;;;;5034394;28;20525;-83
2022/08/30 08:45:34;;;;;;;29.87;27.67;;;;;;;;;;5033910;28;20416;-82
2022/08/30 08:48:04;;;;;;;29.60;27.40;;;;;;;;;;5034063;28;20408;-84
2022/08/30 08:50:32;;;;;;;30.23;28.13;;;;;;;;;;5034194;28;20445;-83
2022/08/30 08:55:50;;;;;;;30.80;28.30;;;;;;;;;;5033714;28;20786;-83
2022/08/30 08:58:22;;;;;;;26.47;24.57;;;;;;;;;;5033675;28;20555;-83
2022/08/30 09:00:49;;;;;;;29.17;27.10;;;;;;;;;;5034081;28;20411;-83
2022/08/30 09:03:19;;;;;;;27.03;25.13;;;;;;;;;;5033764;28;20499;-84
2022/08/30 09:05:48;;;;;;;28.00;26.10;;;;;;;;;;5033624;28;20481;-83
2022/08/30 09:08:16;;;;;;;24.87;23.10;;;;;;;;;;5033887;28;20420;-82
2022/08/30 09:49:39;;;;;;;26.07;24.27;;;;;;;;;;5029116;28;20973;-76
2022/08/30 09:52:27;;;;;;;27.67;25.77;;;;;;;;;;5032779;28;20444;-74
2022/08/30 09:55:01;;;;;;;27.33;25.33;;;;;;;;;;5027869;28;20833;-74
2022/08/30 09:57:32;;;;;;;27.03;25.23;;;;;;;;;;5031304;28;20492;-74
2022/08/30 10:00:03;;;;;;;27.83;25.93;;;;;;;;;;5031880;28;20443;-74
2022/08/30 10:02:42;;;;;;;27.00;25.20;;;;;;;;;;5031881;28;20464;-76
2022/08/30 10:05:16;;;;;;;28.40;25.97;;;;;;;;;;5014628;28;20435;-82
2022/08/30 10:07:47;;;;;;;27.17;25.27;;;;;;;;;;5030125;28;20469;-83
2022/08/30 10:10:17;;;;;;;26.90;25.00;;;;;;;;;;5036595;28;20535;-86
2022/08/30 10:12:51;;;;;;;28.00;25.77;;;;;;;;;;5040784;28;20969;-87
2022/08/30 10:15:23;;;;;;;25.63;23.93;;;;;;;;;;5041729;28;20845;-87
2022/08/30 10:17:55;;;;;;;27.13;25.13;;;;;;;;;;5041980;28;20488;-86
2022/08/30 10:20:29;;;;;;;26.03;24.20;;;;;;;;;;5041213;28;20459;-87
2022/08/30 10:22:57;;;;;;;26.50;24.87;;;;;;;;;;5037875;28;20453;-82
2022/08/30 10:25:26;;;;;;;27.70;25.70;;;;;;;;;;5039263;28;20436;-83
2022/08/30 10:27:59;;;;;;;26.63;24.83;;;;;;;;;;5030431;28;20426;-85
2022/08/30 10:30:27;;;;;;;26.37;24.77;;;;;;;;;;5033257;28;20456;-85
2022/08/30 10:32:56;;;;;;;25.77;24.07;;;;;;;;;;5025390;28;20428;-84
2022/08/30 10:35:26;;;;;;;27.57;25.60;;;;;;;;;;5023226;28;20438;-85
2022/08/30 10:37:56;;;;;;;27.70;25.83;;;;;;;;;;5022280;28;20485;-85
2022/08/30 10:43:15;;;;;;;25.17;23.57;;;;;;;;;;5021371;28;20456;-84
2022/08/30 10:45:45;;;;;;;26.07;24.27;;;;;;;;;;5022001;28;20928;-85
2022/08/30 10:48:17;;;;;;;25.50;23.80;;;;;;;;;;5021396;28;20974;-84
2022/08/30 10:50:49;;;;;;;23.83;22.40;;;;;;;;;;5022968;28;20424;-85
2022/08/30 10:53:18;;;;;;;24.90;23.10;;;;;;;;;;5022338;28;20434;-85
2022/08/30 10:55:49;;;;;;;26.13;24.13;;;;;;;;;;5022600;28;20487;-81
2022/08/30 10:58:18;;;;;;;25.30;23.70;;;;;;;;;;5662919;22;20493;-81
2022/08/30 11:00:53;;;;;;;24.07;22.57;;;;;;;;;;5063207;28;20446;-81
2022/08/30 11:03:38;;;;;;;26.30;24.50;;;;;;;;;;5199283;22;20513;-88
2022/08/30 11:06:17;;;;;;;26.10;24.50;;;;;;;;;;5059058;28;20526;-89
2022/08/30 11:08:57;;;;;;;24.90;23.40;;;;;;;;;;5060096;28;20432;-88
2022/08/30 11:11:29;;;;;;;26.90;24.97;;;;;;;;;;5060015;28;20451;-88
2022/08/30 11:13:57;;;;;;;26.40;24.60;;;;;;;;;;5058395;28;20476;-89
2022/08/30 11:16:34;;;;;;;25.70;24.10;;;;;;;;;;5059632;28;20909;-88
2022/08/30 11:19:02;;;;;;;24.90;23.30;;;;;;;;;;5057329;28;20531;-90
2022/08/30 11:21:34;;;;;;;24.40;22.90;;;;;;;;;;5057251;28;20431;-91
2022/08/30 11:24:04;;;;;;;23.73;22.30;;;;;;;;;;5057260;28;20751;-91
2022/08/30 11:26:49;;;;;;;24.37;22.77;;;;;;;;;;5044709;28;20462;-92
2022/08/30 11:29:29;;;;;;;24.70;23.10;;;;;;;;;;5038626;28;20815;-89
2022/08/30 11:31:56;;;;;;;25.40;23.73;;;;;;;;;;5038206;28;20536;-90
2022/08/30 11:34:38;;;;;;;24.27;22.87;;;;;;;;;;5038049;28;20413;-88
2022/08/30 11:37:08;;;;;;;24.30;22.80;;;;;;;;;;5038140;28;20448;-90
2022/08/30 11:39:42;;;;;;;26.20;24.43;;;;;;;;;;5038808;28;20490;-79
2022/08/30 11:42:11;;;;;;;24.67;23.17;;;;;;;;;;5037438;28;20460;-81
2022/08/30 11:44:39;;;;;;;25.03;23.53;;;;;;;;;;5035740;28;21006;-80
2022/08/30 11:47:36;;;;;;;25.07;23.57;;;;;;;;;;5038497;28;20433;-82
2022/08/30 11:50:09;;;;;;;24.80;23.20;;;;;;;;;;5037608;28;20474;-87
2022/08/30 11:52:45;;;;;;;24.90;23.40;;;;;;;;;;5038508;28;20452;-90
2022/08/30 11:55:19;;;;;;;24.80;23.40;;;;;;;;;;5036558;28;20833;-89
2022/08/30 11:57:50;;;;;;;25.23;23.73;;;;;;;;;;5036362;28;20463;-90
2022/08/30 12:00:30;;;;;;;25.43;23.80;;;;;;;;;;5036513;28;20453;-89
2022/08/30 12:02:58;;;;;;;25.10;23.60;;;;;;;;;;5036566;28;20456;-90
2022/08/30 12:05:44;;;;;;;26.17;24.50;;;;;;;;;;5037519;28;20509;-89
2022/08/30 12:08:33;;;;;;;24.53;23.03;;;;;;;;;;5030606;28;20443;-89
2022/08/30 12:11:01;;;;;;;24.77;23.27;;;;;;;;;;5038052;28;20458;-90
2022/08/30 12:13:43;;;;;;;25.20;23.80;;;;;;;;;;5037686;28;20460;-88
2022/08/30 12:16:12;;;;;;;26.00;24.40;;;;;;;;;;5038079;28;20433;-89
2022/08/30 12:18:44;;;;;;;25.80;24.30;;;;;;;;;;5035705;28;20463;-90
2022/08/30 12:21:15;;;;;;;27.17;25.53;;;;;;;;;;5038610;28;20464;-87
2022/08/30 12:23:49;;;;;;;25.63;24.13;;;;;;;;;;5040208;28;20470;-82
2022/08/30 12:26:21;;;;;;;26.27;24.67;;;;;;;;;;5047417;28;20444;-80
2022/08/30 12:28:50;;;;;;;25.77;24.27;;;;;;;;;;5060297;28;20446;-80
2022/08/30 12:31:19;;;;;;;26.23;24.53;;;;;;;;;;5058573;28;20424;-82
2022/08/30 12:33:47;;;;;;;25.00;23.60;;;;;;;;;;5057919;28;20992;-81
2022/08/30 12:36:16;;;;;;;26.23;24.73;;;;;;;;;;5058498;28;20436;-88
2022/08/30 12:38:43;;;;;;;25.27;23.87;;;;;;;;;;5059741;28;20561;-86
2022/08/30 12:41:19;;;;;;;24.77;23.37;;;;;;;;;;5061227;28;20527;-87
2022/08/30 12:43:49;;;;;;;25.50;24.10;;;;;;;;;;5058496;28;20479;-80
2022/08/30 12:46:18;;;;;;;24.40;23.00;;;;;;;;;;5056379;28;20486;-80
2022/08/30 12:48:45;;;;;;;25.10;23.60;;;;;;;;;;5055429;28;20427;-80
2022/08/30 12:51:27;;;;;;;25.47;24.07;;;;;;;;;;5055370;28;20431;-80
2022/08/30 12:53:55;;;;;;;26.93;25.13;;;;;;;;;;5054930;28;20946;-80
2022/08/30 12:56:44;;;;;;;25.03;23.63;;;;;;;;;;5055563;28;20451;-78
2022/08/30 12:59:11;;;;;;;25.93;24.43;;;;;;;;;;5055616;28;20498;-79
2022/08/30 13:01:38;;;;;;;25.63;24.13;;;;;;;;;;5057419;28;20425;-88
2022/08/30 13:04:13;;;;;;;25.80;24.30;;;;;;;;;;5057013;28;20469;-88
2022/08/30 13:06:43;;;;;;;25.10;23.70;;;;;;;;;;5056909;28;20801;-86
2022/08/30 13:09:12;;;;;;;26.87;25.17;;;;;;;;;;5055990;28;20511;-86
2022/08/30 13:11:48;;;;;;;25.57;24.07;;;;;;;;;;5057324;28;20433;-88
2022/08/30 13:14:21;;;;;;;24.77;23.27;;;;;;;;;;5057901;28;20414;-89
2022/08/30 13:16:49;;;;;;;25.70;24.17;;;;;;;;;;5058183;28;20465;-80
2022/08/30 13:19:20;;;;;;;24.90;23.40;;;;;;;;;;5056812;28;20486;-80
2022/08/30 13:21:48;;;;;;;24.87;23.37;;;;;;;;;;5055182;28;20424;-80
2022/08/30 13:24:16;;;;;;;24.50;22.90;;;;;;;;;;5055413;28;20454;-80
2022/08/30 13:26:45;;;;;;;24.80;23.40;;;;;;;;;;5054911;28;20451;-79
2022/08/30 13:29:16;;;;;;;24.50;22.90;;;;;;;;;;5055479;28;20446;-81
2022/08/30 13:31:43;;;;;;;24.23;22.83;;;;;;;;;;5056599;28;20496;-89
2022/08/30 13:34:10;;;;;;;24.07;22.67;;;;;;;;;;5057816;28;20440;-88
2022/08/30 13:36:40;;;;;;;24.90;23.40;;;;;;;;;;5049103;28;20930;-82
2022/08/30 13:39:08;;;;;;;24.23;22.80;;;;;;;;;;5039633;28;20446;-84
2022/08/30 13:41:37;;;;;;;25.33;23.93;;;;;;;;;;5039849;28;20410;-85
2022/08/30 13:44:06;;;;;;;24.33;22.93;;;;;;;;;;5041521;28;20414;-85
2022/08/30 13:46:34;;;;;;;25.10;23.53;;;;;;;;;;5041621;28;20425;-82
2022/08/30 13:49:04;;;;;;;25.47;23.97;;;;;;;;;;5041579;28;20421;-87
2022/08/30 13:51:31;;;;;;;25.00;23.40;;;;;;;;;;5039209;28;20451;-86
2022/08/30 13:53:59;;;;;;;25.57;23.90;;;;;;;;;;5039473;28;20455;-87
2022/08/30 13:56:30;;;;;;;26.50;24.83;;;;;;;;;;5039983;28;20425;-87
2022/08/30 13:58:58;;;;;;;25.73;24.23;;;;;;;;;;5039533;28;20457;-81
2022/08/30 14:01:26;;;;;;;25.70;24.10;;;;;;;;;;5036862;28;20450;-89
2022/08/30 14:03:54;;;;;;;25.33;23.83;;;;;;;;;;5034624;28;20464;-89
2022/08/30 14:06:22;;;;;;;24.90;23.43;;;;;;;;;;5037137;28;20415;-88
2022/08/30 14:08:49;;;;;;;25.93;24.43;;;;;;;;;;5035824;28;20447;-88
2022/08/30 14:11:18;;;;;;;26.57;25.07;;;;;;;;;;5034861;28;20462;-88
2022/08/30 14:13:45;;;;;;;25.40;23.90;;;;;;;;;;5035701;28;20437;-88
2022/08/30 14:16:13;;;;;;;25.47;23.97;;;;;;;;;;5035800;28;20453;-89
2022/08/30 14:18:42;;;;;;;25.97;24.47;;;;;;;;;;5036534;28;20494;-89
2022/08/30 14:21:25;;;;;;;26.10;24.33;;;;;;;;;;5036066;28;20466;-89
2022/08/30 14:23:52;;;;;;;24.87;23.37;;;;;;;;;;5037616;28;20920;-84
2022/08/30 14:26:23;;;;;;;25.33;23.73;;;;;;;;;;5040729;28;20927;-86
2022/08/30 14:28:50;;;;;;;24.47;22.87;;;;;;;;;;5039812;28;20406;-82
2022/08/30 14:31:17;;;;;;;25.10;23.50;;;;;;;;;;5040552;28;20436;-82
2022/08/30 14:33:46;;;;;;;24.93;23.43;;;;;;;;;;5041784;28;20473;-84
2022/08/30 14:36:14;;;;;;;25.83;24.13;;;;;;;;;;5042193;28;20492;-83
2022/08/30 14:38:41;;;;;;;25.50;23.90;;;;;;;;;;5045101;28;20453;-86
2022/08/30 14:41:09;;;;;;;25.67;24.17;;;;;;;;;;5044390;28;20432;-84
2022/08/30 14:43:39;;;;;;;25.07;23.67;;;;;;;;;;5044243;28;20460;-86
2022/08/30 14:46:06;;;;;;;24.20;22.80;;;;;;;;;;5041675;28;20445;-85
2022/08/30 14:48:34;;;;;;;24.23;22.83;;;;;;;;;;5042209;28;20462;-84
2022/08/30 14:51:02;;;;;;;25.17;23.67;;;;;;;;;;5042334;28;20421;-85
2022/08/30 14:53:30;;;;;;;25.50;24.00;;;;;;;;;;5042049;28;20475;-85
2022/08/30 14:55:57;;;;;;;25.70;24.30;;;;;;;;;;5041456;28;20435;-86
2022/08/30 14:58:25;;;;;;;26.20;24.50;;;;;;;;;;5041134;28;20442;-86
2022/08/30 15:00:53;;;;;;;26.20;24.70;;;;;;;;;;5040567;28;20480;-85
2022/08/30 15:03:21;;;;;;;25.17;23.67;;;;;;;;;;5041790;28;20453;-86
2022/08/30 15:05:51;;;;;;;25.83;24.10;;;;;;;;;;5042809;28;20417;-83
2022/08/30 15:08:20;;;;;;;25.00;23.50;;;;;;;;;;5041237;28;20450;-84
2022/08/30 15:10:48;;;;;;;24.90;23.40;;;;;;;;;;5042081;28;20421;-85
2022/08/30 15:13:15;;;;;;;25.20;23.50;;;;;;;;;;5041090;28;20457;-84
2022/08/30 15:15:43;;;;;;;26.00;23.90;;;;;;;;;;5042972;28;20482;-84